Time;durP1;ratioP1;P1;durP2;ratioP2;P2;SDS_P1;SDS_P2;PMS_P1;PMS_P2;Temp;Humidity;BMP_temperature;BMP_pressure;BME280_temperature;BME280_humidity;BME280_pressure;Samples;Min_cycle;Max_cycle;Signal;HPM_P1;HPM_P2
2023/08/01 00:01:53;;;;;;;4.70;2.00;;;;;;;18.58;75.03;99498.95;105549;1255;73849;-64
2023/08/01 00:04:20;;;;;;;4.70;2.20;;;;;;;18.55;74.90;99496.59;105557;1256;82523;-64
2023/08/01 00:06:47;;;;;;;3.90;2.50;;;;;;;18.53;74.89;99490.21;105587;1254;72642;-64
2023/08/01 00:09:14;;;;;;;9.90;2.50;;;;;;;18.50;74.89;99484.94;105546;1258;69250;-64
2023/08/01 00:11:41;;;;;;;3.70;2.20;;;;;;;18.48;74.97;99479.10;105552;1257;69127;-64
2023/08/01 00:14:08;;;;;;;7.00;2.50;;;;;;;18.46;74.89;99470.95;105502;1254;73831;-64
2023/08/01 00:16:35;;;;;;;4.10;1.80;;;;;;;18.43;74.94;99468.17;105526;1253;82636;-64
2023/08/01 00:19:02;;;;;;;3.90;2.00;;;;;;;18.41;74.92;99466.09;105589;1254;72646;-64
2023/08/01 00:21:31;;;;;;;6.30;2.10;;;;;;;18.38;74.93;99464.95;105519;1255;69185;-64
2023/08/01 00:23:58;;;;;;;3.80;1.70;;;;;;;18.36;75.05;99462.28;105596;1251;69068;-64
2023/08/01 00:26:25;;;;;;;5.80;2.20;;;;;;;18.34;75.08;99461.23;105561;1255;73741;-64
2023/08/01 00:28:52;;;;;;;3.60;2.00;;;;;;;18.33;75.25;99454.95;105545;1254;82334;-64
2023/08/01 00:31:19;;;;;;;6.70;2.40;;;;;;;18.30;75.27;99448.23;105554;1254;73689;-64
2023/08/01 00:33:46;;;;;;;5.00;2.30;;;;;;;18.29;75.29;99449.23;105403;1257;69245;-64
2023/08/01 00:36:13;;;;;;;3.80;2.30;;;;;;;18.27;75.22;99447.96;105570;1256;69174;-64
2023/08/01 00:38:42;;;;;;;6.00;2.60;;;;;;;18.25;75.36;99446.71;105545;1255;74854;-64
2023/08/01 00:41:10;;;;;;;4.70;2.40;;;;;;;18.23;75.41;99442.61;105563;1254;83068;-65
2023/08/01 00:43:37;;;;;;;5.30;2.30;;;;;;;18.22;75.40;99438.55;105538;1254;72633;-64
2023/08/01 00:46:06;;;;;;;8.10;2.70;;;;;;;18.20;75.49;99432.66;105546;1256;69182;-64
2023/08/01 00:48:33;;;;;;;3.30;2.00;;;;;;;18.18;75.47;99427.68;105521;1257;69216;-64
2023/08/01 00:51:04;;;;;;;4.10;2.60;;;;;;;18.16;75.47;99421.84;105543;1254;74801;-64
2023/08/01 00:53:31;;;;;;;4.70;2.30;;;;;;;18.15;75.74;99416.98;105649;1255;83807;-64
2023/08/01 00:55:58;;;;;;;5.20;2.50;;;;;;;18.14;75.73;99414.55;105371;1260;71777;-64
2023/08/01 00:58:25;;;;;;;4.70;2.10;;;;;;;18.14;75.73;99408.05;105531;1254;69068;-63
2023/08/01 01:00:55;;;;;;;4.20;2.20;;;;;;;18.14;75.71;99401.91;105580;1254;69173;-63
2023/08/01 01:03:23;;;;;;;3.90;2.50;;;;;;;18.13;75.73;99399.67;105591;1254;75022;-64
2023/08/01 01:06:00;;;;;;;8.40;2.50;;;;;;;18.13;75.79;99392.22;105555;1256;83080;-63
2023/08/01 01:08:27;;;;;;;3.50;2.10;;;;;;;18.12;75.83;99396.36;105566;1256;73746;-64
2023/08/01 01:10:54;;;;;;;4.20;2.30;;;;;;;18.09;75.81;99392.90;105516;1254;69066;-63
2023/08/01 01:13:20;;;;;;;5.30;2.50;;;;;;;18.07;75.93;99395.75;105593;1253;69759;-64
2023/08/01 01:15:47;;;;;;;4.80;2.30;;;;;;;18.03;76.15;99385.81;105553;1256;73982;-64
2023/08/01 01:18:14;;;;;;;4.50;2.60;;;;;;;17.99;76.26;99386.52;105594;1256;82975;-64
2023/08/01 01:20:41;;;;;;;4.30;2.60;;;;;;;17.94;76.40;99383.77;105525;1252;72608;-64
2023/08/01 01:23:09;;;;;;;4.00;2.50;;;;;;;17.89;76.54;99379.60;105536;1256;69093;-63
2023/08/01 01:25:38;;;;;;;4.20;2.00;;;;;;;17.83;76.83;99377.20;105687;1255;69065;-64
2023/08/01 01:28:06;;;;;;;3.10;2.30;;;;;;;17.79;76.93;99372.25;105432;1254;73755;-63
2023/08/01 01:30:33;;;;;;;7.10;2.30;;;;;;;17.76;77.08;99372.48;105387;1254;83738;-63
2023/08/01 01:33:00;;;;;;;5.30;2.20;;;;;;;17.73;77.26;99374.88;105329;1254;72676;-64
2023/08/01 01:35:27;;;;;;;4.10;2.10;;;;;;;17.70;77.42;99372.81;105472;1257;69103;-64
2023/08/01 01:37:54;;;;;;;2.60;2.00;;;;;;;17.66;77.52;99369.63;105567;1253;69138;-63
2023/08/01 01:40:21;;;;;;;3.70;2.40;;;;;;;17.63;77.71;99369.16;105533;1255;73723;-63
2023/08/01 01:42:49;;;;;;;8.20;3.00;;;;;;;17.59;78.06;99362.18;105564;1254;82471;-63
2023/08/01 01:45:16;;;;;;;4.20;2.40;;;;;;;17.55;78.12;99360.58;105523;1257;74050;-62
2023/08/01 01:47:43;;;;;;;3.90;2.20;;;;;;;17.51;78.27;99352.69;105402;1257;69252;-63
2023/08/01 01:50:10;;;;;;;4.60;2.60;;;;;;;17.47;78.51;99351.92;105520;1253;69064;-63
2023/08/01 01:52:37;;;;;;;6.50;2.60;;;;;;;17.44;78.86;99350.93;105439;1254;74818;-63
2023/08/01 01:55:04;;;;;;;5.30;2.40;;;;;;;17.42;79.09;99347.95;105566;1256;82528;-62
2023/08/01 01:57:32;;;;;;;5.70;2.50;;;;;;;17.38;79.33;99348.26;105572;1252;72718;-63
2023/08/01 01:59:59;;;;;;;4.70;2.40;;;;;;;17.34;79.63;99344.33;105382;1257;69279;-62
2023/08/01 02:02:27;;;;;;;8.00;2.50;;;;;;;17.30;79.76;99335.48;105549;1253;69637;-62
2023/08/01 02:04:54;;;;;;;3.30;2.30;;;;;;;17.28;80.01;99337.98;105546;1253;75254;-62
2023/08/01 02:07:21;;;;;;;6.20;2.20;;;;;;;17.24;80.15;99334.77;105423;1257;83222;-62
2023/08/01 02:09:48;;;;;;;4.40;2.60;;;;;;;17.21;80.20;99331.63;105627;1252;72642;-62
2023/08/01 02:12:15;;;;;;;5.10;2.50;;;;;;;17.19;80.49;99330.19;105539;1253;69016;-64
2023/08/01 02:14:42;;;;;;;3.20;2.20;;;;;;;17.18;80.58;99325.52;105421;1253;69251;-61
2023/08/01 02:17:09;;;;;;;6.40;2.30;;;;;;;17.17;80.62;99313.44;105576;1253;74731;-61
2023/08/01 02:19:36;;;;;;;4.00;2.40;;;;;;;17.16;81.05;99313.48;105395;1257;82275;-62
2023/08/01 02:22:03;;;;;;;3.90;2.50;;;;;;;17.17;81.13;99308.84;105401;1257;73641;-61
2023/08/01 02:24:30;;;;;;;6.20;3.00;;;;;;;17.17;81.04;99301.36;105431;1253;69122;-61
2023/08/01 02:26:57;;;;;;;6.50;2.90;;;;;;;17.20;81.66;99298.58;105554;1254;69081;-61
2023/08/01 02:29:24;;;;;;;4.30;2.60;;;;;;;17.18;81.43;99293.52;105561;1254;73736;-61
2023/08/01 02:31:51;;;;;;;5.10;3.10;;;;;;;17.19;81.58;99288.95;105546;1256;82576;-62
2023/08/01 02:34:18;;;;;;;4.50;2.60;;;;;;;17.20;81.82;99288.63;105562;1253;73608;-62
2023/08/01 02:36:45;;;;;;;4.90;2.70;;;;;;;17.21;81.59;99285.06;105554;1254;69224;-62
2023/08/01 02:39:12;;;;;;;4.50;2.30;;;;;;;17.24;81.99;99287.28;105579;1256;69160;-62
2023/08/01 02:41:39;;;;;;;4.10;2.70;;;;;;;17.25;81.98;99280.79;105357;1253;73835;-62
2023/08/01 02:44:06;;;;;;;5.10;2.40;;;;;;;17.27;82.17;99278.75;105342;1258;83265;-62
2023/08/01 02:46:33;;;;;;;4.10;2.40;;;;;;;17.28;82.18;99284.30;105533;1256;73533;-62
2023/08/01 02:49:00;;;;;;;6.80;2.50;;;;;;;17.28;82.46;99281.06;105467;1256;69198;-62
2023/08/01 02:51:28;;;;;;;6.50;2.60;;;;;;;17.28;82.48;99278.29;105581;1252;69120;-61
2023/08/01 02:53:55;;;;;;;4.50;2.60;;;;;;;17.26;82.56;99274.20;105420;1257;74711;-61
2023/08/01 02:56:21;;;;;;;5.90;2.60;;;;;;;17.26;83.05;99269.08;105519;1256;83134;-62
2023/08/01 02:58:48;;;;;;;7.20;2.80;;;;;;;17.24;83.30;99267.64;105494;1253;72679;-62
2023/08/01 03:01:16;;;;;;;5.00;2.70;;;;;;;17.22;83.76;99266.20;105637;1257;69948;-62
2023/08/01 03:03:43;;;;;;;5.20;3.00;;;;;;;17.19;83.93;99267.54;105433;1257;69199;-61
2023/08/01 03:06:11;;;;;;;5.00;3.00;;;;;;;17.17;84.18;99269.46;105535;1253;75023;-61
2023/08/01 03:08:38;;;;;;;5.50;2.50;;;;;;;17.15;84.37;99262.25;105603;1252;83347;-61
2023/08/01 03:11:05;;;;;;;4.80;2.30;;;;;;;17.12;84.21;99258.53;105553;1253;72573;-61
2023/08/01 03:13:32;;;;;;;5.20;2.90;;;;;;;17.11;84.40;99251.96;105550;1254;69733;-61
2023/08/01 03:15:59;;;;;;;4.90;2.30;;;;;;;17.09;84.89;99244.48;105598;1256;69112;-62
2023/08/01 03:18:26;;;;;;;3.20;2.50;;;;;;;17.08;85.11;99240.21;105584;1253;75026;-62
2023/08/01 03:20:53;;;;;;;4.00;2.60;;;;;;;17.06;84.93;99238.63;105640;1256;83210;-61
2023/08/01 03:23:20;;;;;;;4.20;2.30;;;;;;;17.04;85.10;99235.75;105645;1254;73426;-61
2023/08/01 03:25:47;;;;;;;3.90;2.60;;;;;;;17.03;85.48;99232.11;105556;1256;69158;-62
2023/08/01 03:28:14;;;;;;;6.20;2.70;;;;;;;17.01;85.58;99228.77;105470;1254;69099;-62
2023/08/01 03:30:41;;;;;;;5.90;3.00;;;;;;;17.00;85.66;99226.59;105563;1253;73873;-61
2023/08/01 03:33:08;;;;;;;7.50;2.80;;;;;;;16.98;85.56;99227.94;105580;1255;83215;-61
2023/08/01 03:35:35;;;;;;;4.90;2.90;;;;;;;16.98;85.59;99221.27;105431;1253;72603;-62
2023/08/01 03:38:02;;;;;;;3.60;2.50;;;;;;;16.96;85.79;99219.98;105554;1255;69202;-62
2023/08/01 03:40:29;;;;;;;4.20;2.50;;;;;;;16.96;85.86;99211.73;105584;1256;69071;-62
2023/08/01 03:42:56;;;;;;;7.90;3.00;;;;;;;16.95;86.13;99207.54;105270;1254;73827;-63
2023/08/01 03:45:23;;;;;;;4.70;2.40;;;;;;;16.95;86.34;99205.08;105503;1257;82356;-64
2023/08/01 03:47:50;;;;;;;5.20;2.90;;;;;;;16.94;86.27;99200.77;105657;1253;73580;-64
2023/08/01 03:50:18;;;;;;;4.20;2.70;;;;;;;16.93;86.56;99196.42;105582;1251;69182;-64
2023/08/01 03:52:45;;;;;;;6.70;2.80;;;;;;;16.93;86.76;99203.30;105600;1256;69193;-63
2023/08/01 03:55:12;;;;;;;4.20;2.70;;;;;;;16.93;86.48;99201.39;105450;1254;74847;-64
2023/08/01 03:57:42;;;;;;;5.90;3.20;;;;;;;16.92;86.22;99206.70;105419;1257;83123;-65
2023/08/01 04:00:13;;;;;;;6.40;2.70;;;;;;;16.93;86.38;99201.36;105884;1252;73422;-65
2023/08/01 04:02:43;;;;;;;5.20;2.60;;;;;;;16.94;86.40;99202.16;105702;1253;69202;-64
2023/08/01 04:05:15;;;;;;;4.10;2.60;;;;;;;16.96;86.41;99200.09;105655;1256;69202;-64
2023/08/01 04:07:42;;;;;;;3.90;2.70;;;;;;;16.98;86.49;99198.85;105783;1254;75070;-65
2023/08/01 04:10:09;;;;;;;4.60;2.50;;;;;;;17.01;86.41;99193.31;105606;1257;83577;-62
2023/08/01 04:12:36;;;;;;;5.60;2.70;;;;;;;17.03;86.37;99194.39;105639;1257;73950;-63
2023/08/01 04:15:04;;;;;;;5.20;3.10;;;;;;;17.05;86.53;99193.12;105391;1257;69209;-63
2023/08/01 04:17:30;;;;;;;3.80;2.50;;;;;;;17.09;86.55;99193.88;105702;1256;67722;-63
2023/08/01 04:19:57;;;;;;;6.40;2.70;;;;;;;17.11;86.58;99193.18;105530;1257;74858;-64
2023/08/01 04:22:24;;;;;;;4.60;3.00;;;;;;;17.12;86.59;99189.19;105712;1252;83675;-64
2023/08/01 04:24:51;;;;;;;4.60;2.90;;;;;;;17.13;86.75;99187.39;105516;1257;73878;-64
2023/08/01 04:27:18;;;;;;;7.00;2.60;;;;;;;17.13;86.80;99186.64;105465;1257;69163;-64
2023/08/01 04:29:46;;;;;;;5.40;2.80;;;;;;;17.14;86.92;99185.16;105556;1257;69660;-66
2023/08/01 04:32:14;;;;;;;5.90;2.70;;;;;;;17.14;87.03;99184.44;105592;1254;74799;-64
2023/08/01 04:34:42;;;;;;;4.60;2.60;;;;;;;17.13;87.02;99179.23;105588;1257;83345;-64
2023/08/01 04:37:10;;;;;;;7.00;3.20;;;;;;;17.12;87.03;99175.22;105546;1253;72652;-64
2023/08/01 04:39:37;;;;;;;6.50;2.90;;;;;;;17.10;87.18;99175.20;105714;1253;69998;-67
2023/08/01 04:42:05;;;;;;;6.10;2.30;;;;;;;17.08;87.38;99171.71;105427;1257;69385;-68
2023/08/01 04:44:32;;;;;;;5.10;3.30;;;;;;;17.07;87.62;99167.79;105622;1255;73785;-68
2023/08/01 04:46:59;;;;;;;8.20;3.70;;;;;;;17.07;88.02;99169.51;105753;1254;82406;-64
2023/08/01 04:49:26;;;;;;;5.30;3.10;;;;;;;17.07;88.24;99168.30;105561;1252;73576;-64
2023/08/01 04:51:54;;;;;;;4.50;3.00;;;;;;;17.08;88.43;99163.10;105480;1257;69196;-65
2023/08/01 04:54:21;;;;;;;7.60;2.60;;;;;;;17.08;88.60;99168.53;105552;1257;69113;-65
2023/08/01 04:56:47;;;;;;;5.30;3.20;;;;;;;17.08;88.71;99166.97;105552;1253;74716;-68
2023/08/01 04:59:14;;;;;;;3.90;3.30;;;;;;;17.05;88.73;99169.65;105521;1253;82739;-67
2023/08/01 05:01:41;;;;;;;5.70;3.50;;;;;;;17.02;88.99;99173.05;105480;1257;73762;-68
2023/08/01 05:04:08;;;;;;;7.40;3.20;;;;;;;16.99;89.03;99172.65;105542;1257;69260;-66
2023/08/01 05:06:35;;;;;;;5.60;3.20;;;;;;;16.95;89.26;99170.86;105541;1256;69067;-65
2023/08/01 05:09:02;;;;;;;3.10;2.80;;;;;;;16.92;89.39;99176.94;105577;1253;74830;-65
2023/08/01 05:11:29;;;;;;;7.40;3.80;;;;;;;16.88;89.46;99171.80;105490;1253;83434;-67
2023/08/01 05:13:56;;;;;;;5.70;3.90;;;;;;;16.85;89.96;99166.41;105536;1253;73937;-70
2023/08/01 05:16:23;;;;;;;5.20;3.30;;;;;;;16.85;90.36;99162.87;105759;1252;69241;-67
2023/08/01 05:18:50;;;;;;;7.40;3.60;;;;;;;16.84;90.26;99157.45;105517;1254;69100;-65
2023/08/01 05:21:16;;;;;;;5.00;3.40;;;;;;;16.84;90.47;99155.53;105473;1257;74239;-69
2023/08/01 05:23:43;;;;;;;6.20;3.50;;;;;;;16.85;90.74;99150.13;105402;1253;83210;-70
2023/08/01 05:26:10;;;;;;;5.20;2.70;;;;;;;16.88;90.95;99145.70;105428;1257;72141;-68
2023/08/01 05:28:37;;;;;;;6.20;3.30;;;;;;;16.91;91.09;99145.09;105436;1258;69181;-67
2023/08/01 05:31:04;;;;;;;8.40;3.50;;;;;;;16.93;91.28;99139.77;105458;1254;69101;-66
2023/08/01 05:33:31;;;;;;;5.80;3.40;;;;;;;16.96;91.36;99140.58;105464;1257;74813;-66
2023/08/01 05:35:58;;;;;;;6.30;3.60;;;;;;;17.01;91.43;99142.31;105510;1253;82499;-68
2023/08/01 05:38:25;;;;;;;5.20;3.50;;;;;;;17.06;91.59;99138.51;105464;1257;73919;-67
2023/08/01 05:40:52;;;;;;;5.60;3.20;;;;;;;17.13;91.58;99140.55;105552;1253;69202;-67
2023/08/01 05:43:19;;;;;;;5.60;3.50;;;;;;;17.22;91.80;99132.64;105481;1257;69172;-69
2023/08/01 05:45:46;;;;;;;5.60;3.50;;;;;;;17.31;92.02;99129.54;105434;1253;74834;-68
2023/08/01 05:48:13;;;;;;;4.40;3.20;;;;;;;17.43;91.96;99127.29;105521;1256;83219;-69
2023/08/01 05:50:40;;;;;;;3.80;3.20;;;;;;;17.54;91.96;99123.00;105482;1256;72590;-68
2023/08/01 05:53:08;;;;;;;5.50;3.30;;;;;;;17.65;91.68;99115.13;105502;1253;69194;-68
2023/08/01 05:55:34;;;;;;;5.70;3.40;;;;;;;17.77;91.84;99115.00;105419;1253;69202;-67
2023/08/01 05:58:01;;;;;;;6.40;3.00;;;;;;;17.87;91.74;99112.17;105542;1253;74914;-65
2023/08/01 06:00:30;;;;;;;7.40;3.50;;;;;;;17.94;91.58;99111.61;105492;1257;83206;-68
2023/08/01 06:02:58;;;;;;;5.80;3.40;;;;;;;17.96;91.25;99113.85;105574;1253;73904;-68
2023/08/01 06:05:25;;;;;;;5.20;3.30;;;;;;;17.98;90.99;99104.52;105581;1253;69163;-68
2023/08/01 06:07:52;;;;;;;5.30;3.20;;;;;;;17.99;91.03;99100.89;105471;1253;69071;-69
2023/08/01 06:10:19;;;;;;;5.20;2.90;;;;;;;17.99;90.93;99102.84;105472;1256;73860;-69
2023/08/01 06:12:46;;;;;;;7.50;3.60;;;;;;;17.98;90.83;99098.98;105462;1256;83679;-68
2023/08/01 06:15:13;;;;;;;4.80;3.00;;;;;;;17.98;91.01;99096.15;105505;1253;73750;-68
2023/08/01 06:17:40;;;;;;;4.30;3.20;;;;;;;17.99;91.07;99093.65;105235;1258;69266;-69
2023/08/01 06:20:08;;;;;;;5.30;3.10;;;;;;;17.98;90.93;99091.41;105406;1254;70803;-67
2023/08/01 06:22:35;;;;;;;4.50;2.80;;;;;;;17.98;91.02;99097.07;105452;1253;75061;-69
2023/08/01 06:25:02;;;;;;;6.00;3.30;;;;;;;17.97;91.18;99094.30;105414;1256;83175;-69
2023/08/01 06:27:29;;;;;;;3.80;2.80;;;;;;;17.97;91.20;99090.83;105554;1256;73933;-69
2023/08/01 06:29:56;;;;;;;5.10;3.10;;;;;;;17.98;91.22;99087.67;105449;1253;68990;-69
2023/08/01 06:32:23;;;;;;;7.20;3.30;;;;;;;17.97;91.01;99086.00;105435;1253;69122;-69
2023/08/01 06:34:49;;;;;;;5.10;3.40;;;;;;;17.97;91.16;99084.96;105486;1257;73800;-68
2023/08/01 06:37:16;;;;;;;5.40;3.00;;;;;;;17.99;91.19;99085.33;105494;1257;83361;-68
2023/08/01 06:39:43;;;;;;;5.50;3.10;;;;;;;18.02;91.33;99085.23;105553;1257;72678;-69
2023/08/01 06:42:10;;;;;;;4.60;3.00;;;;;;;18.05;91.18;99083.36;105455;1252;69303;-67
2023/08/01 06:44:37;;;;;;;4.90;3.10;;;;;;;18.06;91.14;99077.94;105498;1253;69186;-67
2023/08/01 06:47:05;;;;;;;4.70;3.00;;;;;;;18.07;91.33;99073.46;105502;1253;74998;-67
2023/08/01 06:49:32;;;;;;;4.90;3.00;;;;;;;18.08;91.38;99067.58;105490;1257;82514;-67
2023/08/01 06:51:59;;;;;;;3.90;2.70;;;;;;;18.06;91.26;99061.73;105545;1254;73785;-66
2023/08/01 06:54:26;;;;;;;4.70;2.80;;;;;;;18.04;91.10;99057.10;105488;1253;69161;-67
2023/08/01 06:56:53;;;;;;;6.60;3.10;;;;;;;18.04;91.25;99057.30;105569;1257;69691;-66
2023/08/01 06:59:20;;;;;;;4.20;2.90;;;;;;;18.08;91.49;99054.30;105547;1253;75005;-66
2023/08/01 07:01:47;;;;;;;6.40;3.20;;;;;;;18.12;91.48;99054.63;105448;1253;83082;-66
2023/08/01 07:04:14;;;;;;;4.60;2.80;;;;;;;18.18;91.48;99055.91;105483;1252;72545;-68
2023/08/01 07:06:41;;;;;;;5.00;3.10;;;;;;;18.21;91.46;99047.29;105418;1256;69194;-65
2023/08/01 07:09:10;;;;;;;5.40;2.60;;;;;;;18.25;91.64;99048.50;105432;1253;69178;-68
2023/08/01 07:11:37;;;;;;;4.80;2.80;;;;;;;18.31;91.73;99049.04;105618;1252;73825;-67
2023/08/01 07:14:03;;;;;;;3.70;2.50;;;;;;;18.36;91.54;99052.69;105565;1254;83621;-66
2023/08/01 07:16:30;;;;;;;4.20;2.70;;;;;;;18.36;91.34;99047.73;105446;1253;72621;-67
2023/08/01 07:19:00;;;;;;;4.60;2.50;;;;;;;18.36;91.19;99042.28;105455;1253;69714;-67
2023/08/01 07:21:28;;;;;;;5.90;2.60;;;;;;;18.35;91.09;99040.08;105512;1257;69125;-67
2023/08/01 07:23:57;;;;;;;5.40;2.30;;;;;;;18.34;91.02;99034.45;105470;1253;73569;-66
2023/08/01 07:26:24;;;;;;;3.50;2.20;;;;;;;18.39;91.12;99032.26;105473;1258;82901;-66
2023/08/01 07:28:51;;;;;;;4.70;2.70;;;;;;;18.49;91.30;99028.01;105450;1256;73032;-66
2023/08/01 07:31:18;;;;;;;4.80;2.30;;;;;;;18.58;91.16;99024.67;105445;1253;69089;-66
2023/08/01 07:33:45;;;;;;;4.40;2.50;;;;;;;18.69;91.03;99023.98;105447;1256;69176;-66
2023/08/01 07:36:12;;;;;;;3.20;2.10;;;;;;;18.79;91.07;99017.58;105544;1257;75030;-66
2023/08/01 07:38:39;;;;;;;3.90;3.00;;;;;;;19.00;91.10;99014.61;105439;1253;82342;-66
2023/08/01 07:41:07;;;;;;;3.80;2.50;;;;;;;19.19;90.67;99013.68;105471;1254;73632;-66
2023/08/01 07:43:34;;;;;;;3.60;2.10;;;;;;;19.33;90.29;99010.91;105503;1253;69119;-65
2023/08/01 07:46:01;;;;;;;3.90;1.90;;;;;;;19.44;89.83;99010.77;105247;1256;271724;-63
2023/08/01 07:48:28;;;;;;;3.60;2.00;;;;;;;19.51;89.57;99002.63;105464;1252;74720;-64
2023/08/01 07:50:55;;;;;;;4.20;2.20;;;;;;;19.56;89.07;98992.23;105574;1253;82518;-64
2023/08/01 07:53:22;;;;;;;2.70;2.00;;;;;;;19.60;88.72;98983.01;105429;1258;73902;-64
2023/08/01 07:55:49;;;;;;;4.20;1.80;;;;;;;19.65;88.38;98980.77;105587;1253;69091;-63
2023/08/01 07:58:16;;;;;;;2.60;1.70;;;;;;;19.63;87.91;98981.81;105455;1253;69183;-63
2023/08/01 08:00:43;;;;;;;2.90;2.00;;;;;;;19.63;87.99;98978.43;105482;1253;72604;-63
2023/08/01 08:03:10;;;;;;;3.20;2.10;;;;;;;19.70;87.91;98970.88;105509;1253;82400;-64
2023/08/01 08:05:39;;;;;;;3.40;2.00;;;;;;;19.73;87.71;98969.67;105440;1256;73516;-64
2023/08/01 08:08:06;;;;;;;4.30;2.20;;;;;;;19.72;87.30;98970.84;105412;1253;69276;-64
2023/08/01 08:10:33;;;;;;;2.40;1.80;;;;;;;19.72;87.17;98966.05;105537;1257;69222;-63
2023/08/01 08:13:00;;;;;;;4.60;2.00;;;;;;;19.75;87.19;98963.32;105443;1257;73777;-63
2023/08/01 08:15:27;;;;;;;4.20;2.30;;;;;;;19.79;87.02;98958.81;105464;1257;81359;-64
2023/08/01 08:17:54;;;;;;;4.20;1.90;;;;;;;19.84;86.87;98961.16;105519;1253;72496;-63
2023/08/01 08:20:21;;;;;;;3.00;2.00;;;;;;;19.90;86.55;98957.98;105483;1254;69308;-64
2023/08/01 08:22:48;;;;;;;4.90;2.20;;;;;;;19.94;86.51;98954.93;105466;1257;69115;-64
2023/08/01 08:25:15;;;;;;;3.30;2.10;;;;;;;19.99;86.10;98949.10;105482;1259;74725;-64
2023/08/01 08:27:42;;;;;;;3.70;2.60;;;;;;;20.08;85.91;98944.26;105432;1257;83617;-64
2023/08/01 08:30:09;;;;;;;3.80;2.20;;;;;;;20.21;85.79;98942.40;105501;1253;73465;-66
2023/08/01 08:32:36;;;;;;;6.10;2.20;;;;;;;20.26;85.32;98945.12;105517;1252;69511;-65
2023/08/01 08:35:04;;;;;;;2.90;2.00;;;;;;;20.30;85.11;98945.83;105472;1258;69112;-65
2023/08/01 08:37:31;;;;;;;4.60;1.90;;;;;;;20.36;84.92;98938.27;105508;1253;74868;-65
2023/08/01 08:39:58;;;;;;;5.50;2.20;;;;;;;20.48;84.87;98936.33;105492;1257;83254;-65
2023/08/01 08:42:25;;;;;;;3.60;2.10;;;;;;;20.56;84.38;98931.16;105402;1253;73793;-64
2023/08/01 08:44:55;;;;;;;3.10;2.40;;;;;;;20.65;84.12;98930.04;105421;1258;69178;-65
2023/08/01 08:47:26;;;;;;;8.20;2.50;;;;;;;20.74;83.31;98925.42;105481;1253;69173;-64
2023/08/01 08:49:55;;;;;;;3.00;1.80;;;;;;;20.79;82.52;98918.64;105536;1257;73862;-64
2023/08/01 08:52:24;;;;;;;4.30;1.90;;;;;;;20.87;82.21;98915.48;105515;1257;83614;-66
2023/08/01 08:54:51;;;;;;;3.50;2.20;;;;;;;20.98;81.51;98921.00;105518;1253;72551;-66
2023/08/01 08:57:19;;;;;;;4.70;3.00;;;;;;;20.98;81.45;98914.95;105467;1252;69110;-64
2023/08/01 08:59:47;;;;;;;4.30;2.60;;;;;;;20.96;80.94;98918.69;105502;1253;69781;-64
2023/08/01 09:02:15;;;;;;;4.60;2.80;;;;;;;20.90;80.43;98915.77;105593;1253;73873;-64
2023/08/01 09:04:43;;;;;;;6.90;2.70;;;;;;;20.82;80.00;98915.36;105462;1257;83593;-66
2023/08/01 09:07:13;;;;;;;4.00;2.10;;;;;;;20.79;79.95;98909.12;105471;1257;73669;-65
2023/08/01 09:09:40;;;;;;;3.30;2.40;;;;;;;20.78;79.70;98907.59;105400;1258;69310;-65
2023/08/01 09:12:08;;;;;;;4.30;2.60;;;;;;;20.78;79.51;98899.09;105453;1257;69180;-65
2023/08/01 09:14:35;;;;;;;4.10;2.20;;;;;;;20.81;79.32;98902.52;105521;1253;74910;-65
2023/08/01 09:17:09;;;;;;;4.30;2.30;;;;;;;20.83;79.17;98903.30;105486;1257;83229;-66
2023/08/01 09:19:37;;;;;;;5.70;2.50;;;;;;;20.84;78.87;98896.49;105464;1253;73609;-65
2023/08/01 09:22:12;;;;;;;3.70;2.00;;;;;;;20.85;78.87;98887.48;105400;1253;69177;-65
2023/08/01 09:24:39;;;;;;;6.20;2.40;;;;;;;20.88;78.68;98885.93;105486;1256;69134;-64
2023/08/01 09:27:08;;;;;;;5.10;2.20;;;;;;;20.92;78.57;98887.52;105608;1253;74862;-63
2023/08/01 09:29:35;;;;;;;3.00;2.10;;;;;;;20.95;78.56;98884.33;105504;1257;83238;-64
2023/08/01 09:32:12;;;;;;;7.90;2.10;;;;;;;20.93;78.24;98884.55;105419;1253;71596;-64
2023/08/01 09:34:41;;;;;;;3.70;1.90;;;;;;;20.88;78.16;98885.91;105490;1257;69157;-64
2023/08/01 09:37:08;;;;;;;3.90;1.70;;;;;;;20.85;77.93;98881.30;105454;1253;69176;-64
2023/08/01 09:39:35;;;;;;;1.90;1.60;;;;;;;20.81;77.81;98883.66;105415;1257;73826;-64
2023/08/01 09:42:02;;;;;;;3.40;1.50;;;;;;;20.78;77.69;98879.33;105449;1253;82705;-64
2023/08/01 09:44:30;;;;;;;7.20;1.70;;;;;;;20.76;77.66;98880.80;105533;1254;72673;-66
2023/08/01 09:46:59;;;;;;;5.50;1.70;;;;;;;20.70;77.53;98885.79;105470;1254;69195;-67
2023/08/01 09:49:30;;;;;;;2.70;1.60;;;;;;;20.66;77.56;98880.06;105543;1253;69166;-66
2023/08/01 09:51:58;;;;;;;3.20;1.70;;;;;;;20.63;77.69;98881.29;105487;1256;73769;-65
2023/08/01 09:54:25;;;;;;;3.10;1.90;;;;;;;20.64;77.87;98874.43;105520;1258;83496;-65
2023/08/01 09:56:53;;;;;;;3.50;1.70;;;;;;;20.67;77.82;98870.89;105465;1257;73477;-65
2023/08/01 09:59:22;;;;;;;2.70;1.40;;;;;;;20.72;77.83;98866.15;105532;1256;69147;-64
2023/08/01 10:01:51;;;;;;;3.90;1.20;;;;;;;20.86;77.85;98861.05;105508;1256;69118;-65
2023/08/01 10:04:21;;;;;;;3.10;1.50;;;;;;;21.08;77.32;98858.07;105505;1257;74152;-64
2023/08/01 10:06:55;;;;;;;2.50;1.40;;;;;;;21.22;76.84;98852.00;105512;1253;82515;-66
2023/08/01 10:09:22;;;;;;;2.80;1.40;;;;;;;21.30;76.54;98849.01;105471;1253;73943;-66
2023/08/01 10:11:51;;;;;;;2.60;1.20;;;;;;;21.37;76.35;98850.77;105490;1252;69193;-66
2023/08/01 10:14:21;;;;;;;2.30;1.50;;;;;;;21.42;75.64;98846.93;105559;1257;69199;-66
2023/08/01 10:16:48;;;;;;;1.70;1.30;;;;;;;21.47;75.42;98851.14;105509;1253;73786;-65
2023/08/01 10:19:17;;;;;;;2.20;1.30;;;;;;;21.51;74.85;98851.08;105474;1253;83171;-64
2023/08/01 10:21:47;;;;;;;1.90;1.30;;;;;;;21.59;74.47;98851.58;105516;1253;72590;-65
2023/08/01 10:24:14;;;;;;;1.50;1.20;;;;;;;21.70;74.22;98846.52;105654;1257;69063;-66
2023/08/01 10:26:45;;;;;;;2.50;1.00;;;;;;;21.89;74.33;98840.44;105479;1253;68940;-65
2023/08/01 10:29:12;;;;;;;2.10;1.10;;;;;;;22.06;73.96;98839.39;105578;1258;73146;-67
2023/08/01 10:31:39;;;;;;;2.00;1.20;;;;;;;22.27;73.13;98836.98;105598;1253;82561;-66
2023/08/01 10:34:13;;;;;;;1.10;1.00;;;;;;;22.46;72.74;98829.32;105510;1253;72402;-65
2023/08/01 10:36:53;;;;;;;1.60;0.90;;;;;;;22.57;72.42;98826.86;105473;1253;69047;-66
2023/08/01 10:39:22;;;;;;;1.20;1.00;;;;;;;22.66;71.53;98825.52;105357;1253;69103;-66
2023/08/01 10:42:05;;;;;;;2.40;0.80;;;;;;;22.67;71.20;98828.23;105542;1253;74871;-64
2023/08/01 10:44:34;;;;;;;3.60;1.00;;;;;;;22.70;70.50;98825.91;105523;1258;83631;-66
2023/08/01 10:47:02;;;;;;;1.10;0.60;;;;;;;22.79;70.18;98826.73;105505;1253;73778;-64
2023/08/01 10:49:42;;;;;;;1.20;0.70;;;;;;;22.88;69.94;98818.35;105531;1254;69142;-63
2023/08/01 10:52:23;;;;;;;1.80;0.70;;;;;;;23.02;69.49;98812.51;105547;1253;69191;-65
2023/08/01 10:55:05;;;;;;;1.10;0.60;;;;;;;23.17;69.24;98807.98;105580;1257;74831;-63
2023/08/01 10:57:35;;;;;;;1.90;0.80;;;;;;;23.20;68.08;98811.24;105520;1257;83166;-64
2023/08/01 11:00:04;;;;;;;1.90;0.70;;;;;;;23.24;67.04;98800.34;105533;1259;73824;-63
2023/08/01 11:02:31;;;;;;;1.00;0.50;;;;;;;23.30;67.10;98801.88;105501;1259;69077;-63
2023/08/01 11:05:04;;;;;;;1.50;0.60;;;;;;;23.27;67.14;98791.00;105577;1257;69267;-63
2023/08/01 11:07:32;;;;;;;0.50;0.50;;;;;;;23.18;66.89;98795.02;105499;1253;74917;-63
2023/08/01 11:10:17;;;;;;;1.60;0.60;;;;;;;23.10;66.76;98789.65;105489;1257;83244;-64
2023/08/01 11:12:44;;;;;;;2.10;0.50;;;;;;;23.06;66.70;98790.37;105443;1253;72742;-63
2023/08/01 11:15:12;;;;;;;0.70;0.60;;;;;;;23.05;66.76;98779.19;105476;1256;69067;-63
2023/08/01 11:17:42;;;;;;;0.90;0.50;;;;;;;23.00;66.58;98779.78;105466;1257;69302;-63
2023/08/01 11:20:11;;;;;;;1.40;0.70;;;;;;;22.96;66.56;98781.08;105526;1253;74839;-63
2023/08/01 11:22:56;;;;;;;1.80;0.40;;;;;;;23.19;66.64;98776.26;105510;1252;84488;-65
2023/08/01 11:25:37;;;;;;;0.60;0.50;;;;;;;23.52;66.11;98781.39;105492;1259;72689;-66
2023/08/01 11:28:12;;;;;;;2.00;0.40;;;;;;;23.49;64.14;98782.18;105470;1258;69188;-64